Time;durP1;ratioP1;P1;durP2;ratioP2;P2;SDS_P1;SDS_P2;PMS_P1;PMS_P2;Temp;Humidity;BMP_temperature;BMP_pressure;BME280_temperature;BME280_humidity;BME280_pressure;Samples;Min_cycle;Max_cycle;Signal;HPM_P1;HPM_P2
2021/09/12 02:45:17;;;;;;;12.18;10.80;;;17.20;96.50;;;;;;5722549;24;20098;-83
2021/09/12 02:47:43;;;;;;;16.48;10.93;;;17.20;96.60;;;;;;4730526;30;20044;-83
2021/09/12 02:50:09;;;;;;;15.63;11.45;;;17.30;96.50;;;;;;4734255;30;20036;-83
2021/09/12 02:52:35;;;;;;;16.38;10.32;;;17.20;96.20;;;;;;4735325;30;20040;-83
2021/09/12 02:55:03;;;;;;;16.42;12.77;;;17.20;96.20;;;;;;4749586;30;20066;-83
2021/09/12 02:57:29;;;;;;;12.70;10.50;;;17.20;96.20;;;;;;4749871;30;20059;-83
2021/09/12 02:59:56;;;;;;;14.07;11.18;;;17.30;96.30;;;;;;4734825;30;20024;-83
2021/09/12 03:02:22;;;;;;;15.38;10.90;;;17.20;96.60;;;;;;4749456;30;20274;-83
2021/09/12 03:04:48;;;;;;;11.47;10.27;;;17.20;96.60;;;;;;4749874;30;20078;-83
2021/09/12 03:07:14;;;;;;;15.52;12.50;;;17.20;97.30;;;;;;4734964;30;20357;-83
2021/09/12 03:09:39;;;;;;;14.80;10.65;;;17.20;97.50;;;;;;4734671;30;20048;-83
2021/09/12 03:12:05;;;;;;;17.58;11.20;;;17.20;97.50;;;;;;4734897;30;20111;-83
2021/09/12 03:14:31;;;;;;;15.25;11.60;;;17.30;97.70;;;;;;4735056;30;20032;-82
2021/09/12 03:16:57;;;;;;;16.58;11.05;;;17.30;97.10;;;;;;4734741;30;20354;-83
2021/09/12 03:19:23;;;;;;;19.17;12.15;;;17.30;96.90;;;;;;4749266;30;20032;-83
2021/09/12 03:21:49;;;;;;;13.15;9.95;;;17.30;96.80;;;;;;4734492;30;20058;-83
2021/09/12 03:24:15;;;;;;;13.98;10.52;;;17.30;97.20;;;;;;4734654;30;20228;-83
2021/09/12 03:26:40;;;;;;;16.95;11.23;;;17.30;96.90;;;;;;4749281;30;20028;-82
2021/09/12 03:29:06;;;;;;;14.15;11.10;;;17.20;96.60;;;;;;4749390;30;20031;-83
2021/09/12 03:31:32;;;;;;;12.98;10.90;;;17.20;96.40;;;;;;4734491;30;20067;-83
2021/09/12 03:33:58;;;;;;;14.32;10.75;;;17.20;96.40;;;;;;4749138;30;20059;-83
2021/09/12 03:36:23;;;;;;;13.63;12.00;;;17.20;96.40;;;;;;4734334;30;20032;-83
2021/09/12 03:38:49;;;;;;;13.27;10.45;;;17.10;96.40;;;;;;4764866;30;20051;-81
2021/09/12 03:41:15;;;;;;;15.55;12.07;;;17.10;96.30;;;;;;4734675;30;20327;-83
2021/09/12 03:43:41;;;;;;;15.25;11.30;;;17.10;96.20;;;;;;4734454;30;20059;-83
2021/09/12 03:46:07;;;;;;;14.38;11.35;;;17.10;96.10;;;;;;4745453;30;20075;-83
2021/09/12 03:48:33;;;;;;;13.15;10.48;;;17.00;96.00;;;;;;4746014;30;20064;-83
2021/09/12 03:50:58;;;;;;;17.60;11.25;;;17.00;96.00;;;;;;4745741;30;20114;-83
2021/09/12 03:53:24;;;;;;;14.93;12.35;;;17.00;96.30;;;;;;4745700;30;20028;-83
2021/09/12 03:55:50;;;;;;;17.27;12.98;;;16.90;96.20;;;;;;4745362;30;20036;-83
2021/09/12 03:58:16;;;;;;;13.02;11.10;;;16.90;96.40;;;;;;4730996;30;20036;-83
2021/09/12 04:00:42;;;;;;;16.98;13.45;;;16.80;96.40;;;;;;4730644;30;20039;-83
2021/09/12 04:03:07;;;;;;;13.52;10.63;;;16.80;96.40;;;;;;4745460;30;20316;-83
2021/09/12 04:05:33;;;;;;;15.23;10.93;;;16.80;96.40;;;;;;4745596;30;20047;-83
2021/09/12 04:07:59;;;;;;;15.57;12.15;;;16.80;96.40;;;;;;4745191;30;20083;-83
2021/09/12 04:10:25;;;;;;;19.08;11.23;;;16.80;96.50;;;;;;4731204;30;20043;-83
2021/09/12 04:12:50;;;;;;;15.75;10.85;;;16.80;96.60;;;;;;4730583;30;20037;-80
2021/09/12 04:15:16;;;;;;;14.45;12.10;;;16.80;96.50;;;;;;4745181;30;20059;-81
2021/09/12 04:17:42;;;;;;;14.73;11.75;;;16.70;96.40;;;;;;4730344;30;20052;-81
2021/09/12 04:20:08;;;;;;;17.25;12.20;;;16.70;96.50;;;;;;4744868;30;20045;-81
2021/09/12 04:22:34;;;;;;;18.67;13.77;;;16.70;96.60;;;;;;4730674;30;20028;-81
2021/09/12 04:25:00;;;;;;;13.15;11.75;;;16.70;97.10;;;;;;4745250;30;20343;-81
2021/09/12 04:27:26;;;;;;;15.35;11.90;;;16.70;97.40;;;;;;4744856;30;20111;-83
2021/09/12 04:29:52;;;;;;;17.77;13.10;;;16.70;97.40;;;;;;4730272;30;20108;-81
2021/09/12 04:32:18;;;;;;;21.83;15.20;;;16.70;97.40;;;;;;4730581;30;20095;-83
2021/09/12 04:34:47;;;;;;;23.65;15.82;;;16.70;98.30;;;;;;4730567;30;20103;-81
2021/09/12 04:37:16;;;;;;;20.58;15.75;;;16.80;98.80;;;;;;4744700;30;20040;-80
2021/09/12 04:39:42;;;;;;;20.95;16.92;;;16.90;99.30;;;;;;4730236;30;20051;-81
2021/09/12 04:42:08;;;;;;;22.50;17.83;;;17.00;99.70;;;;;;4744833;30;20034;-81
2021/09/12 04:44:34;;;;;;;17.00;14.68;;;17.10;99.80;;;;;;4730519;30;20032;-81
2021/09/12 04:47:00;;;;;;;25.23;15.07;;;17.10;99.30;;;;;;4730022;30;20126;-81
2021/09/12 04:49:26;;;;;;;19.40;16.00;;;17.10;98.90;;;;;;4745199;30;20032;-81
2021/09/12 04:51:51;;;;;;;16.45;13.80;;;17.20;98.80;;;;;;4730631;30;20047;-81
2021/09/12 04:54:17;;;;;;;17.15;14.35;;;17.20;98.40;;;;;;4744818;30;20336;-81
2021/09/12 04:56:43;;;;;;;17.20;14.50;;;17.20;98.10;;;;;;4730382;30;20048;-81
2021/09/12 04:59:09;;;;;;;21.50;14.88;;;17.30;98.20;;;;;;4730350;30;20033;-81
2021/09/12 05:01:34;;;;;;;18.48;15.20;;;17.30;98.00;;;;;;4737517;30;20040;-81
2021/09/12 05:04:01;;;;;;;17.38;14.15;;;17.30;97.90;;;;;;4713260;30;20351;-81
2021/09/12 05:06:26;;;;;;;24.17;18.25;;;17.40;97.80;;;;;;4728750;30;20112;-81
2021/09/12 05:08:52;;;;;;;20.95;13.73;;;17.50;98.10;;;;;;4713031;30;20044;-80
2021/09/12 05:11:18;;;;;;;18.40;14.40;;;17.60;97.80;;;;;;4698591;30;20044;-81
2021/09/12 05:13:44;;;;;;;20.40;16.02;;;17.80;97.60;;;;;;4732216;30;20063;-80
2021/09/12 05:16:10;;;;;;;20.15;14.38;;;18.00;97.10;;;;;;4749347;30;20037;-80
2021/09/12 05:18:36;;;;;;;18.65;13.85;;;18.10;96.70;;;;;;4733587;30;20033;-80
2021/09/12 05:21:01;;;;;;;17.55;13.52;;;18.20;96.60;;;;;;4719281;30;20335;-81
2021/09/12 05:23:29;;;;;;;22.77;14.82;;;18.30;96.40;;;;;;4733895;30;20272;-81
2021/09/12 05:25:55;;;;;;;17.50;13.95;;;18.30;96.10;;;;;;4719220;30;20040;-81
2021/09/12 05:28:20;;;;;;;17.45;14.93;;;18.40;95.90;;;;;;4733544;30;20032;-81
2021/09/12 05:30:46;;;;;;;18.08;15.27;;;18.40;95.80;;;;;;4733280;30;20056;-80
2021/09/12 05:33:12;;;;;;;17.10;14.13;;;18.50;96.00;;;;;;4733147;30;20098;-80
2021/09/12 05:35:38;;;;;;;15.85;13.60;;;18.60;95.70;;;;;;4748865;30;20037;-80
2021/09/12 05:38:04;;;;;;;22.67;15.18;;;18.70;95.40;;;;;;4719085;30;20028;-80
2021/09/12 05:40:30;;;;;;;19.38;15.50;;;18.80;95.40;;;;;;4718995;30;20043;-80
2021/09/12 05:42:56;;;;;;;21.15;17.20;;;18.90;95.50;;;;;;4718996;30;20040;-81
2021/09/12 05:45:22;;;;;;;31.58;18.48;;;19.00;95.70;;;;;;4718906;30;20041;-81
2021/09/12 05:47:48;;;;;;;21.20;17.45;;;19.20;96.40;;;;;;4737510;30;20115;-81
2021/09/12 05:50:14;;;;;;;20.50;16.50;;;19.20;96.30;;;;;;4732976;30;20051;-81
2021/09/12 05:52:40;;;;;;;21.27;15.63;;;19.30;96.20;;;;;;4748903;30;20040;-81
2021/09/12 05:55:06;;;;;;;24.27;15.65;;;19.40;96.10;;;;;;4733127;30;20062;-81
2021/09/12 05:57:32;;;;;;;20.57;16.43;;;19.40;96.10;;;;;;4747747;30;20119;-80
2021/09/12 05:59:59;;;;;;;24.10;15.57;;;19.50;96.00;;;;;;4747724;30;20024;-81
2021/09/12 06:02:24;;;;;;;23.73;15.15;;;19.50;95.60;;;;;;4733027;30;20272;-81
2021/09/12 06:04:50;;;;;;;21.27;15.68;;;19.60;95.40;;;;;;4718526;30;20032;-81
2021/09/12 06:07:17;;;;;;;18.90;15.00;;;19.80;95.30;;;;;;4732817;30;20046;-81
2021/09/12 06:09:42;;;;;;;17.53;14.80;;;19.80;95.40;;;;;;4747624;30;20025;-81
2021/09/12 06:12:09;;;;;;;18.55;15.32;;;19.90;95.40;;;;;;4732543;30;20043;-81
2021/09/12 06:14:36;;;;;;;21.48;16.42;;;20.00;95.20;;;;;;4732602;30;20036;-81
2021/09/12 06:17:05;;;;;;;20.33;15.38;;;20.00;95.00;;;;;;4718274;30;20328;-81
2021/09/12 06:19:35;;;;;;;20.70;14.23;;;20.10;94.90;;;;;;4714027;30;20395;-81
2021/09/12 06:22:01;;;;;;;18.35;14.63;;;20.20;94.80;;;;;;4737331;30;20029;-82
2021/09/12 06:24:27;;;;;;;20.33;15.57;;;20.30;94.70;;;;;;4714844;30;20041;-81
2021/09/12 06:26:53;;;;;;;19.90;17.15;;;20.30;94.80;;;;;;4701044;30;20044;-81
2021/09/12 06:29:19;;;;;;;21.30;16.55;;;20.40;94.90;;;;;;4700646;30;20032;-81
2021/09/12 06:31:45;;;;;;;23.33;17.23;;;20.60;95.00;;;;;;4700754;30;20029;-81
2021/09/12 06:34:11;;;;;;;23.17;16.00;;;20.60;94.70;;;;;;4715335;30;20040;-81
2021/09/12 06:36:38;;;;;;;20.50;16.60;;;20.70;94.60;;;;;;4700538;30;20099;-81
2021/09/12 06:39:04;;;;;;;27.20;16.00;;;20.70;94.60;;;;;;4700639;30;20040;-81
2021/09/12 06:41:29;;;;;;;22.60;16.85;;;20.90;94.50;;;;;;4715185;30;20044;-81
2021/09/12 06:43:56;;;;;;;18.15;15.70;;;21.00;94.20;;;;;;4719708;30;20025;-81
2021/09/12 06:46:22;;;;;;;18.95;14.70;;;21.20;94.10;;;;;;4732316;30;20116;-81
2021/09/12 06:48:47;;;;;;;22.92;15.73;;;21.40;93.60;;;;;;4717780;30;21202;-81
2021/09/12 06:51:14;;;;;;;22.45;16.30;;;21.50;93.10;;;;;;4717289;30;20028;-81
2021/09/12 06:53:40;;;;;;;21.87;16.47;;;21.60;93.20;;;;;;4747985;30;20060;-81
2021/09/12 06:56:06;;;;;;;23.02;15.93;;;21.80;93.30;;;;;;4731949;30;20036;-80
2021/09/12 06:58:32;;;;;;;18.98;14.90;;;21.90;92.80;;;;;;4717334;30;20108;-81
2021/09/12 07:00:59;;;;;;;18.00;15.57;;;22.10;92.50;;;;;;4714526;30;20029;-81
2021/09/12 07:03:25;;;;;;;21.27;16.02;;;22.30;92.20;;;;;;4714975;30;20032;-81
2021/09/12 07:05:51;;;;;;;19.55;15.13;;;22.40;91.40;;;;;;4714781;30;20117;-81
2021/09/12 07:08:17;;;;;;;24.58;16.38;;;22.60;91.20;;;;;;4730571;30;20247;-82
2021/09/12 07:10:44;;;;;;;18.83;15.63;;;22.60;91.10;;;;;;4730752;30;20041;-82
2021/09/12 07:13:10;;;;;;;24.30;14.32;;;22.80;91.00;;;;;;4715442;30;20069;-82
2021/09/12 07:15:36;;;;;;;18.23;14.77;;;23.00;90.70;;;;;;4715225;30;20040;-82
2021/09/12 07:18:03;;;;;;;16.85;14.05;;;23.10;90.80;;;;;;4730951;30;20258;-82
2021/09/12 07:20:29;;;;;;;19.50;14.63;;;23.20;90.40;;;;;;4732827;30;20091;-82
2021/09/12 07:22:54;;;;;;;17.48;13.98;;;23.30;89.80;;;;;;4748106;30;20082;-82
2021/09/12 07:25:20;;;;;;;16.70;14.30;;;23.40;89.30;;;;;;4732441;30;20048;-82
2021/09/12 07:27:46;;;;;;;22.23;14.85;;;23.50;88.80;;;;;;4732490;30;20331;-82
2021/09/12 07:30:14;;;;;;;19.90;13.25;;;23.70;88.60;;;;;;4733110;30;20081;-82
2021/09/12 07:32:40;;;;;;;18.30;12.73;;;23.90;87.40;;;;;;4748351;30;20029;-82
2021/09/12 07:35:07;;;;;;;16.10;12.98;;;24.20;86.50;;;;;;4732104;30;20224;-82
2021/09/12 07:37:34;;;;;;;17.20;13.88;;;24.30;85.60;;;;;;4730844;30;20389;-82
2021/09/12 07:40:00;;;;;;;15.87;12.77;;;24.40;83.90;;;;;;4718698;30;20029;-82
2021/09/12 07:42:27;;;;;;;14.55;11.10;;;24.30;84.50;;;;;;4733834;30;20286;-82
2021/09/12 07:44:53;;;;;;;14.27;11.45;;;24.30;84.30;;;;;;4750404;30;20025;-81
2021/09/12 07:47:18;;;;;;;13.18;10.70;;;24.40;84.60;;;;;;4749682;30;20068;-81
2021/09/12 07:49:44;;;;;;;11.73;10.20;;;24.50;83.80;;;;;;4720311;30;20036;-81
2021/09/12 07:52:11;;;;;;;15.75;10.00;;;24.50;83.10;;;;;;4734710;30;20086;-81
2021/09/12 07:54:36;;;;;;;10.13;8.55;;;24.50;83.80;;;;;;4705791;30;20151;-81
2021/09/12 07:57:02;;;;;;;9.18;8.07;;;24.60;82.90;;;;;;4734508;30;20041;-81
2021/09/12 07:59:28;;;;;;;8.95;7.57;;;24.80;82.60;;;;;;4734549;30;20028;-81
2021/09/12 08:01:57;;;;;;;8.45;7.55;;;24.90;81.80;;;;;;4734461;30;20106;-82
2021/09/12 08:04:23;;;;;;;9.70;7.57;;;25.10;82.00;;;;;;4734064;30;20029;-81
2021/09/12 08:06:49;;;;;;;9.27;8.03;;;25.20;79.80;;;;;;4734184;30;20423;-81
2021/09/12 08:09:15;;;;;;;11.85;8.50;;;25.30;80.20;;;;;;4733693;30;20036;-82
2021/09/12 08:11:41;;;;;;;10.00;8.82;;;25.40;79.00;;;;;;4733886;30;20036;-82
2021/09/12 08:14:07;;;;;;;9.57;7.88;;;25.50;80.50;;;;;;4733390;30;20028;-82
2021/09/12 08:16:33;;;;;;;13.02;7.72;;;25.60;78.70;;;;;;4728555;30;20063;-82
2021/09/12 08:18:59;;;;;;;10.60;7.57;;;25.60;77.40;;;;;;4701715;30;20056;-82
2021/09/12 08:21:26;;;;;;;11.03;8.60;;;25.50;78.20;;;;;;4743423;30;20067;-81
2021/09/12 08:23:52;;;;;;;9.18;7.85;;;25.70;78.50;;;;;;4730124;30;20032;-81
2021/09/12 08:26:17;;;;;;;10.98;8.57;;;26.00;77.40;;;;;;4732281;30;20032;-82
2021/09/12 08:28:43;;;;;;;13.68;7.88;;;26.10;75.80;;;;;;4731378;30;20039;-82
2021/09/12 08:31:09;;;;;;;8.23;7.43;;;26.20;75.10;;;;;;4716252;30;20235;-81
2021/09/12 08:33:35;;;;;;;8.80;6.32;;;26.20;74.30;;;;;;4716035;30;20028;-82
2021/09/12 08:36:01;;;;;;;9.80;8.35;;;26.30;76.40;;;;;;4716166;30;20051;-82
2021/09/12 08:38:26;;;;;;;9.10;8.05;;;26.40;73.10;;;;;;4730796;30;20107;-82
2021/09/12 08:40:58;;;;;;;9.52;7.10;;;26.50;73.70;;;;;;4730544;30;20100;-82
2021/09/12 08:43:24;;;;;;;9.23;6.80;;;26.60;71.70;;;;;;4730816;30;20059;-82
2021/09/12 08:45:50;;;;;;;12.57;7.57;;;26.80;73.30;;;;;;4745963;30;20130;-82
2021/09/12 08:48:16;;;;;;;12.10;7.07;;;27.10;71.20;;;;;;4730280;30;20055;-82
2021/09/12 08:50:42;;;;;;;16.95;7.38;;;27.10;69.30;;;;;;4730582;30;20367;-82
2021/09/12 08:53:08;;;;;;;9.00;7.38;;;27.10;69.20;;;;;;4730322;30;20108;-82
2021/09/12 08:55:34;;;;;;;7.72;6.35;;;27.30;69.30;;;;;;4730297;30;20281;-82
2021/09/12 08:58:02;;;;;;;;;;;27.60;68.40;;;;;;4730990;30;20100;-82
2021/09/12 09:00:29;;;;;;;6.97;5.88;;;27.80;65.40;;;;;;4730673;30;19925;-82
2021/09/12 09:03:03;;;;;;;7.38;6.40;;;27.80;65.60;;;;;;4730450;30;20092;-82
2021/09/12 09:05:37;;;;;;;10.48;5.78;;;27.90;65.60;;;;;;4730443;30;20227;-82
2021/09/12 09:08:14;;;;;;;7.07;6.28;;;27.90;65.20;;;;;;4730928;30;20036;-82
2021/09/12 09:10:51;;;;;;;6.47;5.78;;;27.80;63.80;;;;;;4716731;30;20111;-82
2021/09/12 09:13:30;;;;;;;13.18;6.03;;;27.80;65.00;;;;;;4716367;30;20284;-82
2021/09/12 09:15:58;;;;;;;7.65;6.22;;;27.90;64.00;;;;;;4731456;30;20043;-82
2021/09/12 09:18:35;;;;;;;7.13;5.85;;;27.90;65.90;;;;;;4730331;30;20070;-82
2021/09/12 09:21:20;;;;;;;;;;;27.70;64.90;;;;;;4744738;30;20068;-82
2021/09/12 09:23:46;;;;;;;7.05;5.80;;;27.60;65.30;;;;;;4729391;30;19922;-82
2021/09/12 09:26:21;;;;;;;6.57;5.60;;;27.70;64.70;;;;;;4729550;30;20040;-81
2021/09/12 09:28:54;;;;;;;6.15;5.55;;;27.80;64.10;;;;;;4729693;30;20037;-81
2021/09/12 09:31:23;;;;;;;7.20;5.53;;;27.80;64.80;;;;;;4729341;30;20056;-81
2021/09/12 09:33:49;;;;;;;7.85;5.32;;;27.70;63.60;;;;;;4729659;30;20045;-81
2021/09/12 09:36:17;;;;;;;5.97;4.88;;;27.50;62.60;;;;;;4729873;30;20240;-81
2021/09/12 09:38:47;;;;;;;6.82;5.30;;;27.60;64.70;;;;;;4729587;30;20032;-81
2021/09/12 09:41:18;;;;;;;5.45;4.50;;;27.60;64.20;;;;;;4729352;30;20037;-81
2021/09/12 09:43:53;;;;;;;5.50;5.00;;;27.80;63.40;;;;;;4729500;30;20028;-81
2021/09/12 09:46:41;;;;;;;7.60;4.50;;;27.80;62.80;;;;;;4729608;30;20059;-81
2021/09/12 09:49:22;;;;;;;5.70;4.22;;;27.90;61.90;;;;;;4747087;30;20047;-81
2021/09/12 09:51:59;;;;;;;9.63;4.53;;;27.80;62.70;;;;;;4715256;30;20033;-81
2021/09/12 09:54:28;;;;;;;5.13;4.63;;;27.80;63.00;;;;;;4729826;30;20056;-81
2021/09/12 09:56:55;;;;;;;5.45;4.90;;;27.80;63.60;;;;;;4729780;30;20036;-81
2021/09/12 09:59:22;;;;;;;;;;;27.90;63.20;;;;;;4731157;30;20259;-81
2021/09/12 10:01:51;;;;;;;7.57;4.90;;;28.10;62.50;;;;;;4732391;30;19985;-81
2021/09/12 10:04:24;;;;;;;7.03;4.45;;;28.30;63.00;;;;;;4732579;30;20062;-81
2021/09/12 10:06:51;;;;;;;5.22;3.92;;;28.60;61.70;;;;;;4732285;30;20042;-81
2021/09/12 10:09:18;;;;;;;5.90;4.40;;;28.90;61.70;;;;;;4748509;30;20036;-81
2021/09/12 10:11:57;;;;;;;4.72;3.85;;;29.10;61.10;;;;;;4718510;30;20045;-81
2021/09/12 10:14:37;;;;;;;6.07;4.90;;;29.20;59.00;;;;;;4732783;30;20111;-81
2021/09/12 10:17:04;;;;;;;4.88;4.38;;;29.20;58.90;;;;;;4723640;30;20040;-82
2021/09/12 10:19:41;;;;;;;6.28;4.20;;;29.40;60.60;;;;;;4715028;30;20037;-81
2021/09/12 10:22:16;;;;;;;9.07;4.25;;;29.50;61.10;;;;;;4700457;30;20074;-81
2021/09/12 10:25:00;;;;;;;7.30;3.70;;;29.60;59.40;;;;;;4714877;30;20106;-81
2021/09/12 10:27:34;;;;;;;5.30;3.90;;;29.40;58.70;;;;;;4700414;30;20041;-81
2021/09/12 10:30:36;;;;;;;6.05;3.17;;;29.30;58.00;;;;;;4700172;30;20080;-81
2021/09/12 10:33:05;;;;;;;6.28;3.60;;;29.00;58.10;;;;;;4700273;30;20116;-81
2021/09/12 10:35:45;;;;;;;3.67;3.13;;;28.90;59.10;;;;;;4700326;30;20134;-81
2021/09/12 10:38:12;;;;;;;7.45;3.30;;;28.80;57.10;;;;;;4714812;30;20040;-81
2021/09/12 10:40:47;;;;;;;3.90;3.33;;;28.60;57.60;;;;;;4714585;30;20040;-81
2021/09/12 10:43:29;;;;;;;4.35;3.13;;;28.40;58.30;;;;;;4700777;30;20036;-81
2021/09/12 10:46:04;;;;;;;4.93;3.47;;;28.40;58.70;;;;;;4714798;30;20072;-81
2021/09/12 10:48:41;;;;;;;3.40;2.88;;;28.20;57.50;;;;;;4746695;30;20045;-81
2021/09/12 10:51:10;;;;;;;2.65;2.40;;;28.10;58.30;;;;;;4746892;30;20048;-81
2021/09/12 10:53:45;;;;;;;7.47;3.03;;;28.00;55.70;;;;;;4732068;30;20116;-81
2021/09/12 10:56:34;;;;;;;4.57;3.10;;;27.90;57.60;;;;;;4732195;30;20041;-81
2021/09/12 10:59:10;;;;;;;4.25;2.75;;;27.90;58.10;;;;;;4731913;30;20324;-81
2021/09/12 11:01:45;;;;;;;3.83;2.83;;;28.00;59.10;;;;;;4746655;30;20032;-81
2021/09/12 11:04:13;;;;;;;3.35;3.05;;;28.10;56.50;;;;;;4732140;30;20033;-81
2021/09/12 11:06:44;;;;;;;3.95;3.15;;;28.10;57.40;;;;;;4732035;30;20071;-81
2021/09/12 11:09:37;;;;;;;2.67;2.47;;;28.50;58.90;;;;;;4731635;30;20043;-81
2021/09/12 11:12:05;;;;;;;2.22;2.00;;;28.60;56.20;;;;;;4696287;30;20049;-81
2021/09/12 11:14:32;;;;;;;1.75;1.65;;;28.60;53.90;;;;;;4681978;30;20076;-81
2021/09/12 11:17:09;;;;;;;2.80;1.83;;;28.80;52.80;;;;;;4688877;30;20054;-81
2021/09/12 11:19:35;;;;;;;3.83;3.17;;;29.10;52.90;;;;;;4679102;30;20069;-81
2021/09/12 11:22:01;;;;;;;5.90;2.90;;;29.40;54.00;;;;;;4679981;30;20153;-80
2021/09/12 11:24:28;;;;;;;3.67;2.77;;;29.70;55.30;;;;;;4693950;30;20049;-80
2021/09/12 11:26:58;;;;;;;3.25;2.90;;;29.90;54.30;;;;;;4679284;30;20042;-80
2021/09/12 11:29:27;;;;;;;4.82;3.60;;;30.10;54.50;;;;;;4678762;30;20050;-80
2021/09/12 11:31:58;;;;;;;5.97;3.53;;;30.20;54.30;;;;;;4678915;30;20049;-80
2021/09/12 11:34:24;;;;;;;4.70;3.13;;;30.20;55.10;;;;;;4664973;30;20050;-80
2021/09/12 11:36:52;;;;;;;3.95;3.55;;;30.10;55.40;;;;;;4679226;30;20349;-81
2021/09/12 11:39:30;;;;;;;4.70;3.92;;;30.10;55.00;;;;;;4664663;30;20034;-80
2021/09/12 11:41:58;;;;;;;6.00;4.20;;;30.00;55.40;;;;;;4664956;30;20356;-80
2021/09/12 11:44:33;;;;;;;6.03;3.85;;;30.20;55.70;;;;;;4665531;30;20022;-80
2021/09/12 11:47:00;;;;;;;4.38;3.17;;;30.20;54.60;;;;;;4702150;30;20070;-80
2021/09/12 11:49:26;;;;;;;4.82;3.25;;;30.30;55.50;;;;;;4738695;30;20336;-80
2021/09/12 11:51:52;;;;;;;7.20;3.93;;;30.40;55.90;;;;;;4746746;30;20082;-80
2021/09/12 11:54:22;;;;;;;4.20;3.57;;;30.30;56.10;;;;;;4732230;30;20029;-80
2021/09/12 11:56:54;;;;;;;4.78;3.88;;;30.40;56.50;;;;;;4747593;30;20320;-80
2021/09/12 11:59:21;;;;;;;4.57;3.90;;;30.40;54.90;;;;;;4747330;30;20116;-80
2021/09/12 12:01:52;;;;;;;6.47;3.65;;;30.40;55.40;;;;;;4733306;30;20037;-80
2021/09/12 12:04:19;;;;;;;4.22;3.47;;;30.60;55.30;;;;;;4731949;30;20036;-80
2021/09/12 12:06:50;;;;;;;4.65;3.85;;;30.60;54.80;;;;;;4731917;30;20078;-81
2021/09/12 12:09:26;;;;;;;4.35;3.65;;;30.50;54.50;;;;;;4746409;30;20041;-80
2021/09/12 12:11:53;;;;;;;4.55;3.85;;;30.40;55.10;;;;;;4732347;30;20041;-80
2021/09/12 12:14:21;;;;;;;4.70;3.67;;;30.30;53.50;;;;;;4731302;30;20040;-80
2021/09/12 12:16:47;;;;;;;5.28;3.63;;;30.20;54.00;;;;;;4732251;30;20032;-80
2021/09/12 12:19:15;;;;;;;4.67;3.90;;;30.30;53.90;;;;;;4732087;30;20043;-80
2021/09/12 12:21:44;;;;;;;4.60;3.40;;;30.30;54.70;;;;;;4731734;30;20054;-80
2021/09/12 12:24:15;;;;;;;5.65;3.83;;;30.30;54.90;;;;;;4732390;30;20227;-80
2021/09/12 12:26:43;;;;;;;11.13;4.22;;;30.20;55.30;;;;;;4747423;30;20037;-80
2021/09/12 12:29:09;;;;;;;4.50;3.92;;;30.30;56.50;;;;;;4717535;30;20048;-80
2021/09/12 12:31:36;;;;;;;5.80;3.95;;;30.30;56.50;;;;;;4732424;30;20389;-81
2021/09/12 12:34:03;;;;;;;6.80;4.05;;;30.40;55.20;;;;;;4717394;30;20340;-81
2021/09/12 12:36:29;;;;;;;4.20;3.72;;;30.30;55.10;;;;;;4732755;30;20093;-80
2021/09/12 12:38:54;;;;;;;5.77;3.97;;;30.20;55.90;;;;;;4717642;30;20056;-81
2021/09/12 12:41:24;;;;;;;4.03;3.63;;;30.10;56.20;;;;;;4716966;30;20032;-81
2021/09/12 12:43:51;;;;;;;4.03;3.47;;;30.20;55.90;;;;;;4731820;30;20059;-81
2021/09/12 12:46:17;;;;;;;4.47;4.03;;;30.30;55.70;;;;;;4747254;30;20123;-80
2021/09/12 12:48:43;;;;;;;3.95;3.55;;;30.30;55.60;;;;;;4732073;30;20073;-81
2021/09/12 12:51:19;;;;;;;4.60;3.73;;;30.40;55.00;;;;;;4731429;30;20090;-80
2021/09/12 12:53:50;;;;;;;4.30;3.53;;;30.50;54.20;;;;;;4732658;30;20279;-80
2021/09/12 12:56:17;;;;;;;3.60;3.30;;;30.50;55.50;;;;;;4717238;30;20044;-79
2021/09/12 12:58:45;;;;;;;4.68;3.50;;;30.50;55.80;;;;;;4732251;30;20108;-80
2021/09/12 13:01:11;;;;;;;4.00;3.60;;;30.50;54.60;;;;;;4746612;30;20041;-79
2021/09/12 13:03:39;;;;;;;3.58;3.00;;;30.70;54.70;;;;;;4731733;30;20033;-80
2021/09/12 13:06:13;;;;;;;8.10;3.78;;;30.70;55.00;;;;;;4731049;30;20068;-80
2021/09/12 13:08:40;;;;;;;5.03;3.72;;;30.70;53.20;;;;;;4731325;30;20032;-80
2021/09/12 13:11:07;;;;;;;3.95;3.58;;;30.60;54.30;;;;;;4730803;30;20056;-80
2021/09/12 13:13:33;;;;;;;3.70;3.17;;;30.70;53.90;;;;;;4730133;30;20036;-80
2021/09/12 13:15:59;;;;;;;4.33;3.33;;;30.70;55.10;;;;;;4729420;30;20095;-79
2021/09/12 13:18:25;;;;;;;5.23;3.60;;;30.80;54.40;;;;;;4726936;30;20069;-80
2021/09/12 13:20:53;;;;;;;6.07;3.87;;;31.00;54.40;;;;;;4712635;30;20678;-80
2021/09/12 13:23:20;;;;;;;4.75;4.07;;;30.80;53.00;;;;;;4684164;30;20305;-80
2021/09/12 13:25:46;;;;;;;3.70;3.30;;;30.60;52.90;;;;;;4712486;30;20048;-79
2021/09/12 13:28:12;;;;;;;3.87;3.47;;;30.70;54.70;;;;;;4727583;30;20068;-79
2021/09/12 13:30:38;;;;;;;5.03;3.57;;;30.60;52.10;;;;;;4712804;30;20350;-80
2021/09/12 13:33:05;;;;;;;6.45;3.80;;;30.60;52.00;;;;;;4713905;30;20060;-80
2021/09/12 13:35:31;;;;;;;4.28;3.80;;;30.60;52.60;;;;;;4715939;30;20121;-79
2021/09/12 13:37:57;;;;;;;;;;;30.70;53.50;;;;;;4716920;30;20283;-79
2021/09/12 13:40:24;;;;;;;5.68;4.30;;;30.70;53.20;;;;;;4731880;30;19907;-79
2021/09/12 13:42:50;;;;;;;3.92;3.33;;;30.60;53.50;;;;;;4732113;30;20043;-79
2021/09/12 13:45:16;;;;;;;4.93;3.97;;;30.50;52.20;;;;;;4731542;30;20037;-79
2021/09/12 13:47:42;;;;;;;5.43;3.77;;;30.50;53.10;;;;;;4716001;30;20037;-80
2021/09/12 13:50:09;;;;;;;6.40;4.07;;;30.30;51.90;;;;;;4715793;30;20069;-79
2021/09/12 13:52:35;;;;;;;;;;;30.10;53.60;;;;;;4731021;30;20041;-79
2021/09/12 13:55:01;;;;;;;4.87;4.03;;;30.00;53.70;;;;;;4716053;30;20259;-79
2021/09/12 13:57:27;;;;;;;5.67;3.60;;;30.10;54.80;;;;;;4730076;30;20240;-80
2021/09/12 13:59:52;;;;;;;4.30;3.63;;;30.20;53.30;;;;;;4715712;30;20036;-80
2021/09/12 14:02:18;;;;;;;4.07;3.67;;;30.50;53.70;;;;;;4715536;30;20221;-80
2021/09/12 14:04:44;;;;;;;5.30;3.90;;;30.60;52.40;;;;;;4731200;30;20029;-79
2021/09/12 14:07:10;;;;;;;3.80;3.27;;;30.60;51.90;;;;;;4701188;30;20052;-80
2021/09/12 14:09:37;;;;;;;4.68;3.42;;;30.70;52.50;;;;;;4715616;30;20036;-80
2021/09/12 14:12:04;;;;;;;5.00;3.63;;;30.70;52.50;;;;;;4729988;30;20049;-79
2021/09/12 14:14:30;;;;;;;5.10;2.83;;;30.70;52.40;;;;;;4701223;30;20132;-80
2021/09/12 14:16:56;;;;;;;2.63;2.30;;;30.60;49.60;;;;;;4718210;30;20036;-79
2021/09/12 14:19:21;;;;;;;3.23;2.37;;;30.50;49.30;;;;;;4733597;30;20060;-79
2021/09/12 14:21:47;;;;;;;2.50;2.30;;;30.50;49.90;;;;;;4733739;30;20244;-79
2021/09/12 14:24:13;;;;;;;5.03;3.73;;;30.50;48.60;;;;;;4732666;30;20036;-79
2021/09/12 14:26:39;;;;;;;4.07;3.67;;;30.30;50.70;;;;;;4732824;30;20037;-79
2021/09/12 14:29:06;;;;;;;3.22;2.80;;;30.30;52.10;;;;;;4732628;30;20024;-79
2021/09/12 14:31:32;;;;;;;2.95;2.40;;;30.40;51.20;;;;;;4732361;30;20115;-79
2021/09/12 14:33:58;;;;;;;7.65;2.30;;;30.20;49.20;;;;;;4732852;30;20040;-79
2021/09/12 14:36:24;;;;;;;3.30;2.60;;;30.00;48.90;;;;;;4732326;30;20303;-79
2021/09/12 14:38:50;;;;;;;4.53;2.17;;;29.90;49.10;;;;;;4732527;30;20057;-79
2021/09/12 14:41:16;;;;;;;2.40;2.10;;;30.10;49.60;;;;;;4732959;30;20064;-79
2021/09/12 14:43:42;;;;;;;2.47;2.27;;;30.20;50.00;;;;;;4733369;30;20082;-79
2021/09/12 14:46:08;;;;;;;2.25;2.05;;;30.20;48.80;;;;;;4731942;30;20082;-79
2021/09/12 14:48:34;;;;;;;3.30;2.47;;;30.20;49.10;;;;;;4732309;30;20275;-79
2021/09/12 14:51:00;;;;;;;3.27;2.23;;;30.20;49.30;;;;;;4747432;30;20040;-79
2021/09/12 14:53:27;;;;;;;2.08;1.88;;;30.00;49.50;;;;;;4731732;30;20032;-79
2021/09/12 14:55:55;;;;;;;2.33;2.10;;;30.00;48.90;;;;;;4746761;30;20055;-79
2021/09/12 14:58:21;;;;;;;2.50;2.07;;;29.90;49.60;;;;;;4731367;30;20028;-79
2021/09/12 15:00:47;;;;;;;3.97;2.33;;;29.80;49.00;;;;;;4731767;30;20364;-79
2021/09/12 15:03:13;;;;;;;2.87;2.33;;;29.90;49.70;;;;;;4716936;30;20029;-79
2021/09/12 15:05:44;;;;;;;15.10;2.90;;;29.90;49.70;;;;;;4722067;30;20040;-79
2021/09/12 15:08:10;;;;;;;2.42;2.13;;;29.70;49.50;;;;;;4731609;30;20048;-79
2021/09/12 15:10:36;;;;;;;3.63;2.65;;;29.60;50.10;;;;;;4731571;30;20041;-79
2021/09/12 15:13:05;;;;;;;2.65;2.22;;;29.40;50.00;;;;;;4716883;30;20047;-79
2021/09/12 15:15:32;;;;;;;3.53;2.35;;;29.30;50.40;;;;;;4731758;30;20214;-79
2021/09/12 15:17:58;;;;;;;2.67;2.30;;;29.40;50.90;;;;;;4731279;30;20051;-79
2021/09/12 15:20:24;;;;;;;2.43;2.23;;;29.50;52.20;;;;;;4717590;30;20035;-80
2021/09/12 15:22:50;;;;;;;3.60;2.50;;;29.60;51.50;;;;;;4731786;30;20099;-79
2021/09/12 15:25:16;;;;;;;2.53;2.33;;;29.50;51.40;;;;;;4732516;30;20060;-79
2021/09/12 15:27:42;;;;;;;3.10;2.75;;;29.30;51.10;;;;;;4731811;30;20040;-78